createdAt,value
2023-02-27T00:00:33.582Z,0.00
2023-02-27T00:01:33.544Z,0.00
2023-02-27T00:02:33.535Z,0.00
2023-02-27T00:03:33.514Z,0.00
2023-02-27T00:04:33.491Z,0.00
2023-02-27T00:05:33.432Z,0.00
2023-02-27T00:06:33.408Z,0.00
2023-02-27T00:07:33.377Z,0.00
2023-02-27T00:08:33.394Z,0.00
2023-02-27T00:09:33.317Z,0.00
2023-02-27T00:10:33.296Z,0.00
2023-02-27T00:11:33.264Z,0.00
2023-02-27T00:12:33.239Z,0.00
2023-02-27T00:13:33.209Z,0.00
2023-02-27T00:14:33.216Z,0.00
2023-02-27T00:15:33.152Z,0.00
2023-02-27T00:16:33.119Z,0.00
2023-02-27T00:17:33.096Z,0.00
2023-02-27T00:18:33.067Z,0.00
2023-02-27T00:19:33.034Z,0.00
2023-02-27T00:20:33.010Z,0.00
2023-02-27T00:21:33.872Z,0.00
2023-02-27T00:22:32.954Z,0.00
2023-02-27T00:23:32.922Z,0.00
2023-02-27T00:24:32.891Z,0.00
2023-02-27T00:25:32.862Z,0.00
2023-02-27T00:26:32.836Z,0.00
2023-02-27T00:27:32.810Z,0.00
2023-02-27T00:28:32.776Z,0.00
2023-02-27T00:29:32.740Z,0.00
2023-02-27T00:30:32.771Z,0.00
2023-02-27T00:31:32.762Z,0.00
2023-02-27T00:32:32.671Z,0.00
2023-02-27T00:33:32.640Z,0.00
2023-02-27T00:34:32.609Z,0.00
2023-02-27T00:35:32.572Z,0.00
2023-02-27T00:36:32.551Z,0.00
2023-02-27T00:37:32.516Z,0.00
2023-02-27T00:38:32.504Z,0.00
2023-02-27T00:39:32.464Z,0.00
2023-02-27T00:40:32.440Z,0.00
2023-02-27T00:41:32.416Z,0.00
2023-02-27T00:42:32.372Z,0.00
2023-02-27T00:43:32.373Z,0.00
2023-02-27T00:44:32.324Z,0.00
2023-02-27T00:45:32.295Z,0.00
2023-02-27T00:46:32.282Z,0.00
2023-02-27T00:47:32.256Z,0.00
2023-02-27T00:48:32.198Z,0.00
2023-02-27T00:49:32.168Z,0.00
2023-02-27T00:50:32.143Z,0.00
2023-02-27T00:51:32.116Z,0.00
2023-02-27T00:52:32.083Z,0.00
2023-02-27T00:53:32.058Z,0.00
2023-02-27T00:54:32.027Z,0.00
2023-02-27T00:55:32.018Z,0.00
2023-02-27T00:56:31.968Z,0.00
2023-02-27T00:57:31.969Z,0.00
2023-02-27T00:58:31.915Z,0.00
2023-02-27T00:59:31.909Z,0.00
2023-02-27T01:00:31.862Z,0.00
2023-02-27T01:01:31.819Z,0.00
2023-02-27T01:02:31.845Z,0.00
2023-02-27T01:03:31.764Z,0.00
2023-02-27T01:04:31.740Z,0.00
2023-02-27T01:05:31.717Z,0.00
2023-02-27T01:06:31.691Z,0.00
2023-02-27T01:07:31.654Z,0.00
2023-02-27T01:08:31.636Z,0.00
2023-02-27T01:09:31.592Z,0.00
2023-02-27T01:10:31.570Z,0.00
2023-02-27T01:11:31.536Z,0.00
2023-02-27T01:12:31.517Z,0.00
2023-02-27T01:13:31.481Z,0.00
2023-02-27T01:14:31.453Z,0.00
2023-02-27T01:15:31.448Z,0.00
2023-02-27T01:16:31.441Z,0.00
2023-02-27T01:17:31.363Z,0.00
2023-02-27T01:18:31.339Z,0.00
2023-02-27T01:19:31.322Z,0.00
2023-02-27T01:20:31.287Z,0.00
2023-02-27T01:21:31.257Z,0.00
2023-02-27T01:22:31.239Z,0.00
2023-02-27T01:23:31.187Z,0.00
2023-02-27T01:24:31.163Z,0.00
2023-02-27T01:25:31.130Z,0.00
2023-02-27T01:26:31.115Z,0.00
2023-02-27T01:27:31.070Z,0.00
2023-02-27T01:28:31.045Z,0.00
2023-02-27T01:29:31.022Z,0.00
2023-02-27T01:30:31.028Z,0.00
2023-02-27T01:31:31.033Z,0.00
2023-02-27T01:32:31.006Z,0.00
2023-02-27T01:33:30.896Z,0.00
2023-02-27T01:34:32.740Z,0.00
2023-02-27T01:35:30.840Z,0.00
2023-02-27T01:36:30.816Z,0.00
2023-02-27T01:37:30.777Z,0.00
2023-02-27T01:38:30.755Z,0.00
2023-02-27T01:39:30.722Z,0.00
2023-02-27T01:40:30.698Z,0.00
2023-02-27T01:41:30.659Z,0.00
2023-02-27T01:42:30.639Z,0.00
2023-02-27T01:43:30.605Z,0.00
2023-02-27T01:44:30.586Z,0.00
2023-02-27T01:45:30.603Z,0.00
2023-02-27T01:46:30.520Z,0.00
2023-02-27T01:47:30.519Z,0.00
2023-02-27T01:48:30.486Z,0.00
2023-02-27T01:49:30.477Z,0.00
2023-02-27T01:50:30.409Z,0.00
2023-02-27T01:51:30.371Z,0.00
2023-02-27T01:52:30.349Z,0.00
2023-02-27T01:53:30.310Z,0.00
2023-02-27T01:54:30.288Z,0.00
2023-02-27T01:55:30.255Z,0.00
2023-02-27T01:56:30.230Z,0.00
2023-02-27T01:57:30.202Z,0.00
2023-02-27T01:58:30.172Z,0.00
2023-02-27T01:59:30.136Z,0.00
2023-02-27T02:00:30.119Z,0.00
2023-02-27T02:01:30.251Z,0.00
2023-02-27T02:02:30.094Z,0.00
2023-02-27T02:03:30.032Z,0.00
2023-02-27T02:04:29.997Z,0.00
2023-02-27T02:05:29.967Z,0.00
2023-02-27T02:06:29.954Z,0.00
2023-02-27T02:07:29.906Z,0.00
2023-02-27T02:08:29.908Z,0.00
2023-02-27T02:09:29.845Z,0.00
2023-02-27T02:10:29.830Z,0.00
2023-02-27T02:11:29.798Z,0.00
2023-02-27T02:12:29.766Z,0.00
2023-02-27T02:13:29.737Z,0.00
2023-02-27T02:14:29.718Z,0.00
2023-02-27T02:15:29.679Z,0.00
2023-02-27T02:16:29.731Z,0.00
2023-02-27T02:17:29.615Z,0.00
2023-02-27T02:18:29.603Z,0.00
2023-02-27T02:19:29.565Z,0.00
2023-02-27T02:20:29.530Z,0.00
2023-02-27T02:21:29.512Z,0.00
2023-02-27T02:22:29.473Z,0.00
2023-02-27T02:23:29.481Z,0.00
2023-02-27T02:24:29.417Z,0.00
2023-02-27T02:25:29.391Z,0.00
2023-02-27T02:26:33.092Z,0.00
2023-02-27T02:27:29.326Z,0.00
2023-02-27T02:28:29.302Z,0.00
2023-02-27T02:29:29.284Z,0.00
2023-02-27T02:30:29.374Z,0.00
2023-02-27T02:31:29.718Z,0.00
2023-02-27T02:32:29.272Z,0.00
2023-02-27T02:33:29.156Z,0.00
2023-02-27T02:34:29.136Z,0.00
2023-02-27T02:35:29.112Z,0.00
2023-02-27T02:36:29.087Z,0.00
2023-02-27T02:37:29.053Z,0.00
2023-02-27T02:38:29.037Z,0.00
2023-02-27T02:39:29.003Z,0.00
2023-02-27T02:40:28.990Z,0.00
2023-02-27T02:41:29.117Z,0.00
2023-02-27T02:42:28.904Z,0.00
2023-02-27T02:43:28.882Z,0.00
2023-02-27T02:44:28.843Z,0.00
2023-02-27T02:45:28.834Z,0.00
2023-02-27T02:46:28.808Z,0.00
2023-02-27T02:47:28.768Z,0.00
2023-02-27T02:48:28.783Z,0.00
2023-02-27T02:49:28.720Z,0.00
2023-02-27T02:50:28.757Z,0.00
2023-02-27T02:51:28.956Z,0.00
2023-02-27T02:52:28.622Z,0.00
2023-02-27T02:53:36.076Z,0.00
2023-02-27T02:54:28.566Z,0.00
2023-02-27T02:55:28.540Z,0.00
2023-02-27T02:56:28.513Z,0.00
2023-02-27T02:57:28.491Z,0.00
2023-02-27T02:58:28.463Z,0.00
2023-02-27T02:59:28.428Z,0.00
2023-02-27T03:00:28.423Z,0.00
2023-02-27T03:01:28.773Z,0.00
2023-02-27T03:02:28.341Z,0.00
2023-02-27T03:03:28.317Z,0.00
2023-02-27T03:04:28.386Z,0.00
2023-02-27T03:05:28.268Z,0.00
2023-02-27T03:06:28.223Z,0.00
2023-02-27T03:07:28.253Z,0.00
2023-02-27T03:08:28.201Z,0.00
2023-02-27T03:09:28.144Z,0.00
2023-02-27T03:10:28.113Z,0.00
2023-02-27T03:11:28.459Z,0.00
2023-02-27T03:12:28.056Z,0.00
2023-02-27T03:13:28.051Z,0.00
2023-02-27T03:14:28.012Z,0.00
2023-02-27T03:15:27.979Z,0.00
2023-02-27T03:16:27.947Z,0.00
2023-02-27T03:17:27.939Z,0.00
2023-02-27T03:18:27.893Z,0.00
2023-02-27T03:19:27.862Z,0.00
2023-02-27T03:20:27.849Z,0.00
2023-02-27T03:21:28.198Z,0.00
2023-02-27T03:22:27.777Z,0.00
2023-02-27T03:23:27.750Z,0.00
2023-02-27T03:24:27.716Z,0.00
2023-02-27T03:25:27.702Z,0.00
2023-02-27T03:26:27.667Z,0.00
2023-02-27T03:27:27.636Z,0.00
2023-02-27T03:28:27.602Z,0.00
2023-02-27T03:29:27.577Z,0.00
2023-02-27T03:30:27.583Z,0.00
2023-02-27T03:31:27.964Z,0.00
2023-02-27T03:32:27.514Z,0.00
2023-02-27T03:33:27.464Z,0.00
2023-02-27T03:34:27.444Z,0.00
2023-02-27T03:35:27.412Z,0.00
2023-02-27T03:36:27.384Z,0.00
2023-02-27T03:37:27.354Z,0.00
2023-02-27T03:38:27.319Z,0.00
2023-02-27T03:39:27.300Z,0.00
2023-02-27T03:40:27.279Z,0.00
2023-02-27T03:41:27.588Z,0.00
2023-02-27T03:42:27.207Z,0.00
2023-02-27T03:43:27.188Z,0.00
2023-02-27T03:44:27.168Z,0.00
2023-02-27T03:45:27.133Z,0.00
2023-02-27T03:46:27.136Z,0.00
2023-02-27T03:47:27.078Z,0.00
2023-02-27T03:48:27.042Z,0.00
2023-02-27T03:49:27.014Z,0.00
2023-02-27T03:50:26.996Z,0.00
2023-02-27T03:51:27.303Z,0.00
2023-02-27T03:52:26.930Z,0.00
2023-02-27T03:53:26.910Z,0.00
2023-02-27T03:54:26.880Z,0.00
2023-02-27T03:55:26.871Z,0.00
2023-02-27T03:56:26.821Z,0.00
2023-02-27T03:57:26.822Z,0.00
2023-02-27T03:58:26.773Z,0.00
2023-02-27T03:59:26.742Z,0.00
2023-02-27T04:00:26.736Z,0.00
2023-02-27T04:01:27.104Z,0.00
2023-02-27T04:02:26.665Z,0.00
2023-02-27T04:03:26.638Z,0.00
2023-02-27T04:04:26.598Z,0.00
2023-02-27T04:05:26.570Z,0.00
2023-02-27T04:06:26.556Z,0.00
2023-02-27T04:07:26.524Z,0.00
2023-02-27T04:08:26.475Z,0.00
2023-02-27T04:09:26.474Z,0.00
2023-02-27T04:10:26.437Z,0.00
2023-02-27T04:11:26.820Z,0.00
2023-02-27T04:12:26.361Z,0.00
2023-02-27T04:13:26.342Z,0.00
2023-02-27T04:14:26.304Z,0.00
2023-02-27T04:15:26.293Z,0.00
2023-02-27T04:16:26.287Z,0.00
2023-02-27T04:17:26.235Z,0.00
2023-02-27T04:18:26.229Z,0.00
2023-02-27T04:19:26.176Z,0.00
2023-02-27T04:20:26.135Z,0.00
2023-02-27T04:21:26.461Z,0.00
2023-02-27T04:22:26.102Z,0.00
2023-02-27T04:23:26.059Z,0.00
2023-02-27T04:24:26.025Z,0.00
2023-02-27T04:25:26.007Z,0.00
2023-02-27T04:26:25.970Z,0.00
2023-02-27T04:27:25.953Z,0.00
2023-02-27T04:28:25.922Z,0.00
2023-02-27T04:29:25.893Z,0.00
2023-02-27T04:30:25.885Z,0.00
2023-02-27T04:31:26.325Z,0.00
2023-02-27T04:32:25.973Z,0.00
2023-02-27T04:33:25.780Z,0.00
2023-02-27T04:34:25.756Z,0.00
2023-02-27T04:35:25.744Z,0.00
2023-02-27T04:36:25.693Z,0.00
2023-02-27T04:37:25.669Z,0.00
2023-02-27T04:38:25.638Z,0.00
2023-02-27T04:39:25.618Z,0.00
2023-02-27T04:40:25.586Z,0.00
2023-02-27T04:41:25.912Z,0.00
2023-02-27T04:42:25.572Z,0.00
2023-02-27T04:43:25.513Z,0.00
2023-02-27T04:44:25.480Z,0.00
2023-02-27T04:45:25.517Z,0.00
2023-02-27T04:46:25.417Z,0.00
2023-02-27T04:47:25.395Z,0.00
2023-02-27T04:48:25.358Z,0.00
2023-02-27T04:49:25.334Z,0.00
2023-02-27T04:50:25.307Z,0.00
2023-02-27T04:51:25.541Z,0.00
2023-02-27T04:52:25.250Z,0.00
2023-02-27T04:53:25.256Z,0.00
2023-02-27T04:54:25.187Z,0.00
2023-02-27T04:55:25.177Z,0.00
2023-02-27T04:56:25.133Z,0.00
2023-02-27T04:57:25.116Z,0.00
2023-02-27T04:58:25.430Z,0.00
2023-02-27T04:59:25.062Z,0.00
2023-02-27T05:00:25.020Z,0.00
2023-02-27T05:01:25.045Z,0.00
2023-02-27T05:02:25.147Z,0.00
2023-02-27T05:03:24.938Z,0.00
2023-02-27T05:04:24.906Z,0.00
2023-02-27T05:05:24.893Z,0.00
2023-02-27T05:06:24.844Z,0.00
2023-02-27T05:07:24.822Z,0.00
2023-02-27T05:08:24.794Z,0.00
2023-02-27T05:09:24.767Z,0.00
2023-02-27T05:10:24.728Z,0.00
2023-02-27T05:11:24.970Z,0.00
2023-02-27T05:12:24.683Z,0.00
2023-02-27T05:13:24.690Z,0.00
2023-02-27T05:14:24.613Z,0.00
2023-02-27T05:15:24.656Z,0.00
2023-02-27T05:16:24.622Z,0.00
2023-02-27T05:17:24.538Z,0.00
2023-02-27T05:18:24.499Z,0.00
2023-02-27T05:19:24.484Z,0.00
2023-02-27T05:20:24.446Z,0.00
2023-02-27T05:21:24.802Z,0.00
2023-02-27T05:22:24.405Z,0.00
2023-02-27T05:23:24.391Z,0.00
2023-02-27T05:24:24.342Z,0.00
2023-02-27T05:25:24.311Z,0.00
2023-02-27T05:26:24.312Z,0.00
2023-02-27T05:27:24.253Z,0.00
2023-02-27T05:28:24.227Z,0.00
2023-02-27T05:29:24.191Z,0.00
2023-02-27T05:30:24.185Z,0.00
2023-02-27T05:31:24.173Z,0.00
2023-02-27T05:32:24.114Z,0.00
2023-02-27T05:33:24.081Z,0.00
2023-02-27T05:34:24.056Z,0.00
2023-02-27T05:35:24.017Z,0.00
2023-02-27T05:36:23.989Z,0.00
2023-02-27T05:37:23.962Z,0.00
2023-02-27T05:38:23.929Z,0.00
2023-02-27T05:39:23.911Z,0.00
2023-02-27T05:40:23.883Z,0.00
2023-02-27T05:41:23.880Z,0.00
2023-02-27T05:42:23.824Z,0.00
2023-02-27T05:43:23.792Z,0.00
2023-02-27T05:44:23.753Z,4.00
2023-02-27T05:45:23.726Z,4.00
2023-02-27T05:46:23.698Z,0.00
2023-02-27T05:47:23.692Z,4.00
2023-02-27T05:48:23.636Z,4.00
2023-02-27T05:49:23.613Z,4.00
2023-02-27T05:50:23.589Z,8.00
2023-02-27T05:51:23.560Z,8.00
2023-02-27T05:52:23.516Z,12.00
2023-02-27T05:53:23.513Z,12.00
2023-02-27T05:54:23.467Z,16.00
2023-02-27T05:55:23.456Z,16.00
2023-02-27T05:56:23.417Z,20.00
2023-02-27T05:57:23.380Z,24.00
2023-02-27T05:58:23.353Z,32.00
2023-02-27T05:59:23.329Z,36.00
2023-02-27T06:00:23.309Z,40.00
2023-02-27T06:01:23.265Z,48.00
2023-02-27T06:02:23.304Z,60.00
2023-02-27T06:03:23.234Z,68.00
2023-02-27T06:04:23.189Z,72.00
2023-02-27T06:05:23.150Z,88.00
2023-02-27T06:06:23.143Z,100.00
2023-02-27T06:07:23.100Z,112.00
2023-02-27T06:08:23.056Z,128.00
2023-02-27T06:09:23.057Z,144.00
2023-02-27T06:10:23.004Z,160.00
2023-02-27T06:11:22.981Z,180.00
2023-02-27T06:12:22.950Z,200.00
2023-02-27T06:13:22.929Z,224.00
2023-02-27T06:14:22.883Z,248.00
2023-02-27T06:15:22.886Z,272.00
2023-02-27T06:16:22.843Z,296.00
2023-02-27T06:17:22.806Z,324.00
2023-02-27T06:18:22.769Z,352.00
2023-02-27T06:19:22.773Z,380.00
2023-02-27T06:20:22.728Z,408.00
2023-02-27T06:21:22.682Z,444.00
2023-02-27T06:22:22.651Z,472.00
2023-02-27T06:23:22.707Z,500.00
2023-02-27T06:24:22.597Z,536.00
2023-02-27T06:25:22.569Z,564.00
2023-02-27T06:26:22.553Z,596.00
2023-02-27T06:27:22.516Z,628.00
2023-02-27T06:28:22.477Z,660.00
2023-02-27T06:29:22.447Z,692.00
2023-02-27T06:30:22.427Z,724.00
2023-02-27T06:31:22.399Z,756.00
2023-02-27T06:32:22.364Z,788.00
2023-02-27T06:33:22.332Z,820.00
2023-02-27T06:34:22.304Z,852.00
2023-02-27T06:35:22.279Z,884.00
2023-02-27T06:36:22.239Z,912.00
2023-02-27T06:37:22.221Z,944.00
2023-02-27T06:38:22.187Z,976.00
2023-02-27T06:39:22.190Z,1008.00
2023-02-27T06:40:22.132Z,1036.00
2023-02-27T06:41:22.104Z,1064.00
2023-02-27T06:42:22.086Z,1092.00
2023-02-27T06:43:22.047Z,1124.00
2023-02-27T06:44:22.010Z,1152.00
2023-02-27T06:45:21.984Z,1180.00
2023-02-27T06:46:22.021Z,1212.00
2023-02-27T06:47:21.926Z,1236.00
2023-02-27T06:48:21.892Z,1264.00
2023-02-27T06:49:22.599Z,1292.00
2023-02-27T06:50:21.838Z,1320.00
2023-02-27T06:51:21.835Z,1356.00
2023-02-27T06:52:21.782Z,1392.00
2023-02-27T06:53:21.780Z,1416.00
2023-02-27T06:54:21.729Z,1428.00
2023-02-27T06:55:21.689Z,1448.00
2023-02-27T06:56:21.677Z,1468.00
2023-02-27T06:57:21.630Z,1496.00
2023-02-27T06:58:21.618Z,1524.00
2023-02-27T06:59:21.575Z,1560.00
2023-02-27T07:00:21.559Z,1588.00
2023-02-27T07:01:21.539Z,1608.00
2023-02-27T07:02:21.492Z,1636.00
2023-02-27T07:03:21.482Z,1656.00
2023-02-27T07:04:21.495Z,1672.00
2023-02-27T07:05:21.414Z,1704.00
2023-02-27T07:06:21.374Z,1728.00
2023-02-27T07:07:35.190Z,1744.00
2023-02-27T07:08:21.330Z,1756.00
2023-02-27T07:09:21.294Z,1772.00
2023-02-27T07:10:21.285Z,1792.00
2023-02-27T07:11:21.265Z,1812.00
2023-02-27T07:12:21.208Z,1828.00
2023-02-27T07:13:21.177Z,1844.00
2023-02-27T07:14:21.149Z,1864.00
2023-02-27T07:15:21.133Z,1884.00
2023-02-27T07:16:21.101Z,1900.00
2023-02-27T07:17:21.058Z,1920.00
2023-02-27T07:18:21.039Z,1944.00
2023-02-27T07:19:21.005Z,1968.00
2023-02-27T07:20:20.983Z,1992.00
2023-02-27T07:21:20.967Z,2020.00
2023-02-27T07:22:20.930Z,2048.00
2023-02-27T07:23:20.907Z,2052.00
2023-02-27T07:24:20.875Z,2052.00
2023-02-27T07:25:20.835Z,2068.00
2023-02-27T07:26:20.819Z,2084.00
2023-02-27T07:27:20.802Z,2108.00
2023-02-27T07:28:20.808Z,2144.00
2023-02-27T07:29:20.741Z,2168.00
2023-02-27T07:30:20.700Z,2204.00
2023-02-27T07:31:20.747Z,2212.00
2023-02-27T07:32:20.796Z,2216.00
2023-02-27T07:33:20.608Z,2224.00
2023-02-27T07:34:20.597Z,2272.00
2023-02-27T07:35:20.550Z,2324.00
2023-02-27T07:36:20.525Z,2384.00
2023-02-27T07:37:20.529Z,2444.00
2023-02-27T07:38:20.470Z,2428.00
2023-02-27T07:39:20.439Z,2416.00
2023-02-27T07:40:20.457Z,2448.00
2023-02-27T07:41:29.855Z,2472.00
2023-02-27T07:42:20.369Z,2492.00
2023-02-27T07:43:20.397Z,2524.00
2023-02-27T07:44:20.324Z,2520.00
2023-02-27T07:45:20.277Z,2520.00
2023-02-27T07:46:20.292Z,2564.00
2023-02-27T07:47:20.230Z,2640.00
2023-02-27T07:48:20.200Z,2792.00
2023-02-27T07:49:20.166Z,2864.00
2023-02-27T07:50:20.150Z,2928.00
2023-02-27T07:51:20.137Z,2992.00
2023-02-27T07:52:20.113Z,3008.00
2023-02-27T07:53:20.068Z,3088.00
2023-02-27T07:54:20.034Z,3200.00
2023-02-27T07:55:20.022Z,3288.00
2023-02-27T07:56:19.978Z,3320.00
2023-02-27T07:57:19.964Z,3300.00
2023-02-27T07:58:19.929Z,3256.00
2023-02-27T07:59:19.896Z,3244.00
2023-02-27T08:00:19.892Z,3348.00
2023-02-27T08:01:19.846Z,3364.00
2023-02-27T08:02:19.834Z,3364.00
2023-02-27T08:03:19.786Z,3572.00
2023-02-27T08:04:19.858Z,3744.00
2023-02-27T08:05:19.733Z,3860.00
2023-02-27T08:06:19.737Z,3996.00
2023-02-27T08:07:19.684Z,4080.00
2023-02-27T08:08:19.669Z,4136.00
2023-02-27T08:09:19.631Z,4216.00
2023-02-27T08:10:19.613Z,4324.00
2023-02-27T08:11:19.624Z,4452.00
2023-02-27T08:12:19.581Z,4572.00
2023-02-27T08:13:25.190Z,4680.00
2023-02-27T08:14:19.519Z,4788.00
2023-02-27T08:15:19.472Z,4888.00
2023-02-27T08:16:19.488Z,4976.00
2023-02-27T08:17:19.421Z,5048.00
2023-02-27T08:18:19.400Z,5116.00
2023-02-27T08:19:19.374Z,5224.00
2023-02-27T08:20:19.349Z,5348.00
2023-02-27T08:21:19.346Z,5480.00
2023-02-27T08:22:19.303Z,5628.00
2023-02-27T08:23:19.388Z,5788.00
2023-02-27T08:24:19.272Z,5964.00
2023-02-27T08:25:19.235Z,6132.00
2023-02-27T08:26:19.193Z,6312.00
2023-02-27T08:27:19.217Z,6488.00
2023-02-27T08:28:19.142Z,6676.00
2023-02-27T08:29:19.111Z,6864.00
2023-02-27T08:30:19.085Z,7076.00
2023-02-27T08:31:19.165Z,7292.00
2023-02-27T08:32:19.085Z,7532.00
2023-02-27T08:33:19.022Z,7768.00
2023-02-27T08:34:18.988Z,8024.00
2023-02-27T08:35:18.953Z,8284.00
2023-02-27T08:36:18.933Z,8548.00
2023-02-27T08:37:18.903Z,8808.00
2023-02-27T08:38:18.881Z,9124.00
2023-02-27T08:39:18.859Z,9448.00
2023-02-27T08:40:18.878Z,9772.00
2023-02-27T08:41:18.798Z,10140.00
2023-02-27T08:42:18.794Z,10520.00
2023-02-27T08:43:18.758Z,10888.00
2023-02-27T08:44:18.730Z,11328.00
2023-02-27T08:45:18.735Z,11700.00
2023-02-27T08:46:18.692Z,12040.00
2023-02-27T08:47:18.679Z,12512.00
2023-02-27T08:48:18.702Z,12992.00
2023-02-27T08:49:21.132Z,13276.00
2023-02-27T08:50:18.570Z,13744.00
2023-02-27T08:51:18.544Z,14136.00
2023-02-27T08:52:18.525Z,14532.00
2023-02-27T08:53:18.573Z,15048.00
2023-02-27T08:54:18.494Z,15396.00
2023-02-27T08:55:18.453Z,15800.00
2023-02-27T08:56:18.429Z,16320.00
2023-02-27T08:57:18.390Z,16800.00
2023-02-27T08:58:18.385Z,17056.00
2023-02-27T08:59:18.364Z,17472.00
2023-02-27T09:00:18.363Z,17888.00
2023-02-27T09:01:18.331Z,18432.00
2023-02-27T09:02:18.324Z,18720.00
2023-02-27T09:03:18.240Z,19200.00
2023-02-27T09:04:18.219Z,19360.00
2023-02-27T09:05:18.188Z,19840.00
2023-02-27T09:06:18.167Z,20256.00
2023-02-27T09:07:18.141Z,20320.00
2023-02-27T09:08:18.166Z,21120.00
2023-02-27T09:09:18.093Z,21568.00
2023-02-27T09:10:18.076Z,22176.00
2023-02-27T09:11:18.042Z,22304.00
2023-02-27T09:12:18.014Z,22848.00
2023-02-27T09:13:17.986Z,23040.00
2023-02-27T09:14:18.003Z,23584.00
2023-02-27T09:15:17.943Z,23744.00
2023-02-27T09:16:17.925Z,24640.00
2023-02-27T09:17:17.888Z,25472.00
2023-02-27T09:18:17.877Z,26144.00
2023-02-27T09:19:17.838Z,27008.00
2023-02-27T09:20:17.821Z,27840.00
2023-02-27T09:21:17.791Z,28000.00
2023-02-27T09:22:17.768Z,28640.00
2023-02-27T09:23:17.738Z,28832.00
2023-02-27T09:24:20.664Z,29472.00
2023-02-27T09:25:17.694Z,29984.00
2023-02-27T09:26:17.697Z,30080.00
2023-02-27T09:27:17.675Z,30656.00
2023-02-27T09:28:17.615Z,30976.00
2023-02-27T09:29:17.594Z,31136.00
2023-02-27T09:30:17.564Z,31680.00
2023-02-27T09:31:17.606Z,31968.00
2023-02-27T09:32:17.672Z,32192.00
2023-02-27T09:33:17.481Z,32576.00
2023-02-27T09:34:17.481Z,32512.00
2023-02-27T09:35:17.450Z,33504.00
2023-02-27T09:36:17.426Z,34016.00
2023-02-27T09:37:17.388Z,34240.00
2023-02-27T09:38:17.366Z,34272.00
2023-02-27T09:39:17.348Z,35104.00
2023-02-27T09:40:17.324Z,35200.00
2023-02-27T09:41:17.298Z,35488.00
2023-02-27T09:42:17.272Z,35584.00
2023-02-27T09:43:17.284Z,36000.00
2023-02-27T09:44:17.215Z,36064.00
2023-02-27T09:45:17.188Z,36544.00
2023-02-27T09:46:17.205Z,36416.00
2023-02-27T09:47:17.135Z,36576.00
2023-02-27T09:48:17.116Z,36672.00
2023-02-27T09:49:17.097Z,36896.00
2023-02-27T09:50:17.069Z,37664.00
2023-02-27T09:51:17.030Z,37472.00
2023-02-27T09:52:17.040Z,37984.00
2023-02-27T09:53:16.989Z,37920.00
2023-02-27T09:54:16.982Z,38496.00
2023-02-27T09:55:16.933Z,38848.00
2023-02-27T09:56:16.937Z,39200.00
2023-02-27T09:57:16.907Z,39424.00
2023-02-27T09:58:16.862Z,39872.00
2023-02-27T09:59:16.828Z,40160.00
2023-02-27T10:00:16.816Z,40832.00
2023-02-27T10:01:16.787Z,41120.00
2023-02-27T10:02:16.827Z,41024.00
2023-02-27T10:03:16.823Z,41472.00
2023-02-27T10:04:16.718Z,42016.00
2023-02-27T10:05:16.693Z,42400.00
2023-02-27T10:06:16.664Z,42592.00
2023-02-27T10:07:16.663Z,42496.00
2023-02-27T10:08:16.614Z,42400.00
2023-02-27T10:09:16.583Z,42464.00
2023-02-27T10:10:16.567Z,42688.00
2023-02-27T10:11:16.536Z,42624.00
2023-02-27T10:12:16.513Z,43264.00
2023-02-27T10:13:16.488Z,43552.00
2023-02-27T10:14:16.557Z,43520.00
2023-02-27T10:15:16.449Z,43552.00
2023-02-27T10:16:16.473Z,43424.00
2023-02-27T10:17:16.384Z,43584.00
2023-02-27T10:18:26.048Z,43776.00
2023-02-27T10:19:16.344Z,43904.00
2023-02-27T10:20:16.333Z,44704.00
2023-02-27T10:21:16.313Z,45696.00
2023-02-27T10:22:16.270Z,46240.00
2023-02-27T10:23:16.252Z,46176.00
2023-02-27T10:24:16.231Z,45344.00
2023-02-27T10:25:30.324Z,45504.00
2023-02-27T10:26:16.187Z,47168.00
2023-02-27T10:27:16.153Z,47328.00
2023-02-27T10:28:16.155Z,47072.00
2023-02-27T10:29:16.096Z,46880.00
2023-02-27T10:30:23.544Z,47648.00
2023-02-27T10:31:16.165Z,48640.00
2023-02-27T10:32:16.059Z,48096.00
2023-02-27T10:33:16.025Z,48352.00
2023-02-27T10:34:16.003Z,48480.00
2023-02-27T10:35:15.977Z,48672.00
2023-02-27T10:36:27.044Z,45664.00
2023-02-27T10:37:15.898Z,18144.00
2023-02-27T10:38:15.889Z,16260.00
2023-02-27T10:39:15.862Z,16144.00
2023-02-27T10:40:15.855Z,24672.00
2023-02-27T10:41:15.834Z,8992.00
2023-02-27T10:42:15.789Z,11436.00
2023-02-27T10:43:15.763Z,16052.00
2023-02-27T10:44:15.757Z,49312.00
2023-02-27T10:45:15.799Z,10152.00
2023-02-27T10:46:15.726Z,8576.00
2023-02-27T10:47:15.668Z,7276.00
2023-02-27T10:48:15.666Z,9236.00
2023-02-27T10:49:17.590Z,10024.00
2023-02-27T10:50:15.592Z,9644.00
2023-02-27T10:51:15.567Z,22400.00
2023-02-27T10:52:15.548Z,11080.00
2023-02-27T10:53:15.523Z,10020.00
2023-02-27T10:54:15.490Z,26720.00
2023-02-27T10:55:15.464Z,12216.00
2023-02-27T10:56:15.453Z,30432.00
2023-02-27T10:57:15.414Z,53856.00
2023-02-27T10:58:15.402Z,29344.00
2023-02-27T10:59:15.406Z,15768.00
2023-02-27T11:00:15.350Z,48928.00
2023-02-27T11:01:15.372Z,38752.00
2023-02-27T11:02:15.300Z,14072.00
2023-02-27T11:03:15.271Z,24448.00
2023-02-27T11:04:15.271Z,33280.00
2023-02-27T11:05:15.252Z,12384.00
2023-02-27T11:06:15.212Z,14900.00
2023-02-27T11:07:15.183Z,38144.00
2023-02-27T11:08:15.145Z,36448.00
2023-02-27T11:09:15.193Z,36224.00
2023-02-27T11:10:15.136Z,37600.00
2023-02-27T11:11:15.076Z,37824.00
2023-02-27T11:12:15.068Z,36992.00
2023-02-27T11:13:15.023Z,34528.00
2023-02-27T11:14:15.012Z,33984.00
2023-02-27T11:15:14.991Z,32928.00
2023-02-27T11:16:15.027Z,31936.00
2023-02-27T11:17:14.936Z,32256.00
2023-02-27T11:18:14.904Z,31872.00
2023-02-27T11:19:14.896Z,30240.00
2023-02-27T11:20:14.905Z,29440.00
2023-02-27T11:21:14.845Z,29056.00
2023-02-27T11:22:14.840Z,28192.00
2023-02-27T11:23:14.815Z,27904.00
2023-02-27T11:24:14.785Z,27616.00
2023-02-27T11:25:14.765Z,27392.00
2023-02-27T11:26:14.738Z,27456.00
2023-02-27T11:27:14.732Z,27456.00
2023-02-27T11:28:14.708Z,27776.00
2023-02-27T11:29:14.680Z,29120.00
2023-02-27T11:30:16.283Z,30720.00
2023-02-27T11:31:14.753Z,30112.00
2023-02-27T11:32:14.702Z,27904.00
2023-02-27T11:33:14.597Z,26656.00
2023-02-27T11:34:14.568Z,25760.00
2023-02-27T11:35:14.550Z,25056.00
2023-02-27T11:36:17.448Z,24928.00
2023-02-27T11:37:14.506Z,24992.00
2023-02-27T11:38:14.513Z,24736.00
2023-02-27T11:39:14.476Z,24800.00
2023-02-27T11:40:14.452Z,25824.00
2023-02-27T11:41:14.422Z,26016.00
2023-02-27T11:42:16.472Z,25472.00
2023-02-27T11:43:14.381Z,24480.00
2023-02-27T11:44:14.380Z,24768.00
2023-02-27T11:45:14.340Z,25248.00
2023-02-27T11:46:36.474Z,18208.00
2023-02-27T11:47:14.339Z,11764.00
2023-02-27T11:48:14.286Z,28512.00
2023-02-27T11:49:14.260Z,14500.00
2023-02-27T11:50:14.288Z,10540.00
2023-02-27T11:51:14.220Z,23520.00
2023-02-27T11:52:14.200Z,25824.00
2023-02-27T11:53:14.184Z,25856.00
2023-02-27T11:54:14.150Z,25952.00
2023-02-27T11:55:14.139Z,25280.00
2023-02-27T11:56:14.120Z,24992.00
2023-02-27T11:57:14.094Z,23712.00
2023-02-27T11:58:14.070Z,23936.00
2023-02-27T11:59:14.066Z,24704.00
2023-02-27T12:00:14.068Z,25440.00
2023-02-27T12:01:14.015Z,25632.00
2023-02-27T12:02:13.998Z,22336.00
2023-02-27T12:03:14.054Z,23776.00
2023-02-27T12:04:14.000Z,24576.00
2023-02-27T12:05:13.928Z,22432.00
2023-02-27T12:06:13.913Z,18848.00
2023-02-27T12:07:13.888Z,19392.00
2023-02-27T12:08:13.876Z,24256.00
2023-02-27T12:09:13.849Z,24704.00
2023-02-27T12:10:13.864Z,21632.00
2023-02-27T12:11:14.860Z,10880.00
2023-02-27T12:12:13.826Z,26528.00
2023-02-27T12:13:13.766Z,12244.00
2023-02-27T12:14:13.750Z,22528.00
2023-02-27T12:15:13.717Z,10800.00
2023-02-27T12:16:13.760Z,27712.00
2023-02-27T12:17:13.683Z,11808.00
2023-02-27T12:18:13.661Z,10768.00
2023-02-27T12:19:13.634Z,25152.00
2023-02-27T12:20:13.740Z,31040.00
2023-02-27T12:21:13.595Z,28800.00
2023-02-27T12:22:13.581Z,19168.00
2023-02-27T12:23:13.564Z,20128.00
2023-02-27T12:24:13.522Z,23776.00
2023-02-27T12:25:13.506Z,17004.00
2023-02-27T12:26:13.494Z,12376.00
2023-02-27T12:27:13.470Z,15792.00
2023-02-27T12:28:13.432Z,29216.00
2023-02-27T12:29:13.415Z,28192.00
2023-02-27T12:30:13.407Z,28000.00
2023-02-27T12:31:13.485Z,27264.00
2023-02-27T12:32:13.454Z,26720.00